Menu Close Menu
Station Historical Data
Daily Summary for July 9, 2017 Units:  English    Metric   Both
« Previous Day
Next Day »
Daily Weekly Monthly Yearly Custom
  High: Low: Average:
Temperature: 87.9 °F 69.2 °F 77 °F
Dew Point: 71.2 °F 62.7 °F 68 °F
Humidity: 95% 48% 76%
Wind Speed: 3.5mph 0.0mph 3.2mph
Wind Gust: 3.5mph - -
Wind- - East
Pressure: 30.09 in 30.01 in -
Precipitation: 0.00 in    
Historical Graphs
 
 
Tabular Data for July 9, 2017
Time Temperature Dew Point Pressure Wind Wind Speed Wind Gust Humidity Rainfall Rate (Hourly) solar Conditions
00:01 70.3 °F 67.9 °F 30.02 in NE 3.1 mph   92% 0.00 in WeatherDisplay:10.37 W/m2 SCT
00:06 70.3 °F 67.9 °F 30.02 in NE 3.1 mph   92% 0.00 in WeatherDisplay:10.37 W/m2 SCT
00:11 70.3 °F 67.9 °F 30.02 in NE 3.1 mph   92% 0.00 in WeatherDisplay:10.37 W/m2 SCT
00:16 70.2 °F 67.8 °F 30.02 in NE 3.1 mph   92% 0.00 in WeatherDisplay:10.37 W/m2 SCT
00:21 70.2 °F 67.8 °F 30.02 in NE 3.1 mph   92% 0.00 in WeatherDisplay:10.37 W/m2 CLR
00:26 70.4 °F 68.3 °F 30.02 in NE 3.1 mph   93% 0.00 in WeatherDisplay:10.37 W/m2 CLR
00:31 70.5 °F 68.4 °F 30.02 in NE 3.1 mph   93% 0.00 in WeatherDisplay:10.37 W/m2 CLR
00:36 70.5 °F 68.4 °F 30.02 in NE 3.1 mph   93% 0.00 in WeatherDisplay:10.37 W/m2 CLR
00:38 70.5 °F 68.4 °F 30.02 in NE 3.1 mph   93% 0.00 in WeatherDisplay:10.37 W/m2 CLR
00:43 70.6 °F 68.5 °F 30.02 in NE 3.1 mph   93% 0.00 in WeatherDisplay:10.37 W/m2 CLR
00:48 70.5 °F 68.4 °F 30.01 in NE 3.1 mph   93% 0.00 in WeatherDisplay:10.37 W/m2 CLR
00:53 70.6 °F 68.5 °F 30.02 in NE 3.1 mph   93% 0.00 in WeatherDisplay:10.37 W/m2 CLR
00:58 70.6 °F 68.5 °F 30.02 in NE 3.1 mph   93% 0.00 in WeatherDisplay:10.37 W/m2 CLR
01:03 70.5 °F 68.4 °F 30.02 in NE 3.1 mph   93% 0.00 in WeatherDisplay:10.37 W/m2 CLR
01:08 70.2 °F 67.8 °F 30.02 in NE 3.1 mph   92% 0.00 in WeatherDisplay:10.37 W/m2 CLR
01:13 70.9 °F 69.4 °F 30.02 in ENE 3.1 mph   95% 0.00 in WeatherDisplay:10.37 W/m2 CLR
01:18 70.9 °F 69.4 °F 30.02 in ENE 3.1 mph   95% 0.00 in WeatherDisplay:10.37 W/m2 CLR
01:23 70.9 °F 69.4 °F 30.02 in North 3.1 mph   95% 0.00 in WeatherDisplay:10.37 W/m2 CLR
01:28 70.9 °F 69.4 °F 30.02 in North 3.1 mph   95% 0.00 in WeatherDisplay:10.37 W/m2 CLR
01:33 70.9 °F 69.4 °F 30.02 in North 3.1 mph   95% 0.00 in WeatherDisplay:10.37 W/m2 CLR
01:38 70.9 °F 69.4 °F 30.02 in North 3.1 mph   95% 0.00 in WeatherDisplay:10.37 W/m2 CLR
01:43 70.9 °F 69.4 °F 30.02 in North 3.1 mph   95% 0.00 in WeatherDisplay:10.37 W/m2 CLR
01:49 70.9 °F 69.4 °F 30.02 in North 3.1 mph   95% 0.00 in WeatherDisplay:10.37 W/m2 CLR
01:54 70.9 °F 69.4 °F 30.02 in North 3.1 mph   95% 0.00 in WeatherDisplay:10.37 W/m2 CLR
01:59 70.9 °F 69.4 °F 30.02 in North 3.1 mph   95% 0.00 in WeatherDisplay:10.37 W/m2 CLR
02:04 70.9 °F 69.4 °F 30.02 in North 3.1 mph   95% 0.00 in WeatherDisplay:10.37 W/m2 CLR
02:09 70.9 °F 69.4 °F 30.02 in North 3.1 mph   95% 0.00 in WeatherDisplay:10.37 W/m2 CLR
02:14 70.9 °F 69.4 °F 30.02 in North 3.1 mph   95% 0.00 in WeatherDisplay:10.37 W/m2 CLR
02:19 70.9 °F 69.4 °F 30.03 in North 3.1 mph   95% 0.00 in WeatherDisplay:10.37 W/m2 CLR
02:24 70.9 °F 69.4 °F 30.02 in North 3.1 mph   95% 0.00 in WeatherDisplay:10.37 W/m2 CLR
02:27 70.9 °F 69.4 °F 30.02 in North 3.1 mph   95% 0.00 in WeatherDisplay:10.37 W/m2 CLR
02:32 70.9 °F 69.4 °F 30.02 in North 3.1 mph   95% 0.00 in WeatherDisplay:10.37 W/m2 CLR
02:37 70.9 °F 69.4 °F 30.02 in North 3.1 mph   95% 0.00 in WeatherDisplay:10.37 W/m2 CLR
02:42 70.9 °F 69.4 °F 30.02 in North 3.1 mph   95% 0.00 in WeatherDisplay:10.37 W/m2 CLR
02:47 70.9 °F 69.4 °F 30.02 in North 3.1 mph   95% 0.00 in WeatherDisplay:10.37 W/m2 CLR
02:52 70.9 °F 69.4 °F 30.02 in North 3.1 mph   95% 0.00 in WeatherDisplay:10.37 W/m2 CLR
02:57 70.9 °F 69.4 °F 30.02 in North 3.1 mph   95% 0.00 in WeatherDisplay:10.37 W/m2 CLR
03:02 70.9 °F 69.4 °F 30.02 in North 3.1 mph   95% 0.00 in WeatherDisplay:10.37 W/m2 CLR
03:07 70.9 °F 69.4 °F 30.02 in North 3.1 mph   95% 0.00 in WeatherDisplay:10.37 W/m2 CLR
03:12 70.9 °F 69.4 °F 30.02 in North 3.1 mph   95% 0.00 in WeatherDisplay:10.37 W/m2 CLR
03:17 70.9 °F 69.4 °F 30.02 in North 3.1 mph   95% 0.00 in WeatherDisplay:10.37 W/m2 CLR
03:22 70.9 °F 69.4 °F 30.02 in North 3.1 mph   95% 0.00 in WeatherDisplay:10.37 W/m2 CLR
03:28 70.9 °F 69.4 °F 30.02 in North 3.1 mph   95% 0.00 in WeatherDisplay:10.37 W/m2 CLR
03:33 70.9 °F 69.4 °F 30.02 in North 3.1 mph   95% 0.00 in WeatherDisplay:10.37 W/m2 CLR
03:38 70.9 °F 69.4 °F 30.02 in North 3.1 mph   95% 0.00 in WeatherDisplay:10.37 W/m2 CLR
03:43 70.9 °F 69.4 °F 30.02 in North 3.1 mph   95% 0.00 in WeatherDisplay:10.37 W/m2 CLR
03:48 70.9 °F 69.4 °F 30.02 in North 3.1 mph   95% 0.00 in WeatherDisplay:10.37 W/m2 CLR
03:53 70.9 °F 69.4 °F 30.03 in North 3.1 mph   95% 0.00 in WeatherDisplay:10.37 W/m2 CLR
03:58 70.9 °F 69.4 °F 30.02 in North 3.1 mph   95% 0.00 in WeatherDisplay:10.37 W/m2 CLR
04:03 70.9 °F 69.4 °F 30.03 in North 3.1 mph   95% 0.00 in WeatherDisplay:10.37 W/m2 CLR
04:08 70.9 °F 69.4 °F 30.02 in North 3.1 mph   95% 0.00 in WeatherDisplay:10.37 W/m2 CLR
04:13 70.9 °F 69.4 °F 30.02 in North 3.1 mph   95% 0.00 in WeatherDisplay:10.37 W/m2 CLR
04:18 70.9 °F 69.4 °F 30.03 in North 3.1 mph   95% 0.00 in WeatherDisplay:10.37 W/m2 CLR
04:23 70.9 °F 69.4 °F 30.03 in North 3.1 mph   95% 0.00 in WeatherDisplay:10.37 W/m2 CLR
04:28 70.9 °F 69.4 °F 30.03 in North 3.1 mph   95% 0.00 in WeatherDisplay:10.37 W/m2 CLR
04:33 70.9 °F 69.4 °F 30.03 in North 3.1 mph   95% 0.00 in WeatherDisplay:10.37 W/m2 CLR
04:38 70.9 °F 69.4 °F 30.03 in North 3.1 mph   95% 0.00 in WeatherDisplay:10.37 W/m2 CLR
04:44 70.9 °F 69.4 °F 30.03 in North 3.1 mph   95% 0.00 in WeatherDisplay:10.37 W/m2 CLR
04:49 70.9 °F 69.4 °F 30.03 in North 3.1 mph   95% 0.00 in WeatherDisplay:10.37 W/m2 CLR
04:54 70.9 °F 69.4 °F 30.03 in North 3.1 mph   95% 0.00 in WeatherDisplay:10.37 W/m2 CLR
04:59 70.9 °F 69.4 °F 30.03 in North 3.1 mph   95% 0.00 in WeatherDisplay:10.37 W/m2 CLR
05:04 70.9 °F 69.4 °F 30.03 in North 3.1 mph   95% 0.00 in WeatherDisplay:10.37 W/m2 CLR
05:09 70.9 °F 69.4 °F 30.03 in North 3.1 mph   95% 0.00 in WeatherDisplay:10.37 W/m2 CLR
05:14 70.9 °F 69.4 °F 30.03 in North 3.1 mph   95% 0.00 in WeatherDisplay:10.37 W/m2 CLR
05:19 70.9 °F 69.4 °F 30.03 in North 3.1 mph   95% 0.00 in WeatherDisplay:10.37 W/m2 CLR
05:24 70.9 °F 69.4 °F 30.03 in North 3.1 mph   95% 0.00 in WeatherDisplay:10.37 W/m2 CLR
05:29 70.9 °F 69.4 °F 30.04 in North 3.1 mph   95% 0.00 in WeatherDisplay:10.37 W/m2 CLR
05:34 70.9 °F 69.4 °F 30.04 in North 3.1 mph   95% 0.00 in WeatherDisplay:10.37 W/m2 CLR
05:39 70.9 °F 69.4 °F 30.03 in North 3.1 mph   95% 0.00 in WeatherDisplay:10.37 W/m2 CLR
05:44 70.9 °F 69.4 °F 30.04 in North 3.1 mph   95% 0.00 in WeatherDisplay:10.37 W/m2 CLR
05:49 70.9 °F 69.4 °F 30.04 in North 3.1 mph   95% 0.00 in WeatherDisplay:10.37 W/m2 CLR
05:54 70.9 °F 69.4 °F 30.04 in North 3.1 mph   95% 0.00 in WeatherDisplay:10.37 W/m2 CLR
05:59 70.9 °F 69.4 °F 30.03 in North 3.1 mph   95% 0.00 in WeatherDisplay:10.37 W/m2 CLR
06:04 70.9 °F 69.4 °F 30.03 in North 3.1 mph   95% 0.00 in WeatherDisplay:10.37 W/m2 CLR
06:10 70.9 °F 69.4 °F 30.04 in North 3.1 mph   95% 0.00 in WeatherDisplay:10.37 W/m2 CLR
06:15 70.9 °F 69.4 °F 30.04 in North 3.1 mph   95% 0.00 in WeatherDisplay:10.37 W/m2 CLR
06:20 70.9 °F 69.4 °F 30.04 in North 3.1 mph   95% 0.00 in WeatherDisplay:10.37 W/m2 CLR
06:25 70.9 °F 69.4 °F 30.04 in North 3.1 mph   95% 0.00 in WeatherDisplay:10.37 W/m2 CLR
06:30 70.9 °F 69.4 °F 30.04 in North 3.1 mph   95% 0.00 in WeatherDisplay:10.37 W/m2 CLR
06:35 70.9 °F 69.4 °F 30.04 in North 3.1 mph   95% 0.00 in WeatherDisplay:10.37 W/m2 CLR
06:40 70.9 °F 69.4 °F 30.04 in North 3.1 mph   95% 0.00 in WeatherDisplay:10.37 W/m2 CLR
06:45 70.9 °F 69.4 °F 30.04 in North 3.1 mph   95% 0.00 in WeatherDisplay:10.37 W/m2 CLR
06:50 70.9 °F 69.4 °F 30.05 in North 3.1 mph   95% 0.00 in WeatherDisplay:10.37 W/m2 CLR
06:55 70.9 °F 69.4 °F 30.05 in North 3.1 mph   95% 0.00 in WeatherDisplay:10.37 W/m2 CLR
07:00 70.9 °F 69.4 °F 30.05 in North 3.1 mph   95% 0.00 in WeatherDisplay:10.37 W/m2 CLR
07:06 70.9 °F 69.4 °F 30.05 in North 3.1 mph   95% 0.00 in WeatherDisplay:10.37 W/m2 CLR
07:11 70.9 °F 69.4 °F 30.05 in North 3.1 mph   95% 0.00 in WeatherDisplay:10.37 W/m2 CLR
07:16 70.9 °F 69.4 °F 30.05 in North 3.1 mph   95% 0.00 in WeatherDisplay:10.37 W/m2 CLR
07:21 70.9 °F 69.4 °F 30.05 in North 3.1 mph   95% 0.00 in WeatherDisplay:10.37 W/m2 FEW
07:26 70.9 °F 69.4 °F 30.05 in North 3.1 mph   95% 0.00 in WeatherDisplay:10.37 W/m2 FEW
07:31 70.9 °F 69.4 °F 30.06 in North 3.1 mph   95% 0.00 in WeatherDisplay:10.37 W/m2 FEW
07:36 70.9 °F 69.4 °F 30.06 in North 3.1 mph   95% 0.00 in WeatherDisplay:10.37 W/m2 FEW
07:41 70.9 °F 69.4 °F 30.06 in North 3.1 mph   95% 0.00 in WeatherDisplay:10.37 W/m2 FEW
07:46 70.9 °F 69.4 °F 30.06 in North 3.1 mph   95% 0.00 in WeatherDisplay:10.37 W/m2 FEW
07:51 69.2 °F 67.1 °F 30.06 in East 3.1 mph   93% 0.00 in WeatherDisplay:10.37 W/m2 FEW
07:56 69.3 °F 67.2 °F 30.06 in East 3.1 mph   93% 0.00 in WeatherDisplay:10.37 W/m2 FEW
08:01 69.5 °F 67.4 °F 30.06 in East 3.1 mph   93% 0.00 in WeatherDisplay:10.37 W/m2 FEW
08:06 69.6 °F 67.5 °F 30.06 in East 3.1 mph   93% 0.00 in WeatherDisplay:10.37 W/m2 FEW
08:11 69.8 °F 67.7 °F 30.06 in East 3.1 mph   93% 0.00 in WeatherDisplay:10.37 W/m2 FEW
08:16 70.0 °F 67.9 °F 30.06 in East 3.1 mph   93% 0.00 in WeatherDisplay:10.37 W/m2 FEW
08:21 70.2 °F 67.8 °F 30.06 in East 3.1 mph   92% 0.00 in WeatherDisplay:10.37 W/m2 FEW
08:26 70.3 °F 67.9 °F 30.06 in East 3.1 mph   92% 0.00 in WeatherDisplay:10.37 W/m2 FEW
08:32 70.6 °F 68.2 °F 30.07 in East 3.1 mph   92% 0.00 in WeatherDisplay:10.37 W/m2 FEW
08:37 70.8 °F 68.4 °F 30.07 in East 3.1 mph   92% 0.00 in WeatherDisplay:10.37 W/m2 FEW
08:42 71.1 °F 68.3 °F 30.07 in East 3.1 mph   91% 0.00 in WeatherDisplay:10.37 W/m2 FEW
08:47 71.3 °F 68.2 °F 30.07 in East 3.1 mph   90% 0.00 in WeatherDisplay:10.37 W/m2 FEW
08:52 71.6 °F 68.5 °F 30.07 in East 3.1 mph   90% 0.00 in WeatherDisplay:10.37 W/m2 FEW
08:57 71.9 °F 68.8 °F 30.07 in East 3.1 mph   90% 0.00 in WeatherDisplay:10.37 W/m2 FEW
09:02 72.2 °F 68.8 °F 30.07 in East 3.1 mph   89% 0.00 in WeatherDisplay:10.37 W/m2 FEW
09:07 72.5 °F 69.1 °F 30.07 in East 3.1 mph   89% 0.00 in WeatherDisplay:10.37 W/m2 FEW
09:12 72.8 °F 69.0 °F 30.07 in East 3.1 mph   88% 0.00 in WeatherDisplay:10.37 W/m2 FEW
09:14 73.0 °F 69.2 °F 30.07 in East 3.1 mph   88% 0.00 in WeatherDisplay:10.37 W/m2 FEW
09:19 73.2 °F 69.1 °F 30.07 in East 3.1 mph   87% 0.00 in WeatherDisplay:10.37 W/m2 FEW
09:24 73.5 °F 69.1 °F 30.08 in East 3.1 mph   86% 0.00 in WeatherDisplay:10.37 W/m2 SCT
09:29 73.9 °F 69.8 °F 30.08 in East 3.1 mph   87% 0.00 in WeatherDisplay:10.37 W/m2 SCT
09:30 73.9 °F 69.4 °F 30.08 in East 3.1 mph   86% 0.00 in WeatherDisplay:10.37 W/m2 SCT
09:35 74.2 °F 69.7 °F 30.08 in East 3.1 mph   86% 0.00 in WeatherDisplay:10.37 W/m2 SCT
09:40 74.6 °F 69.4 °F 30.08 in East 3.1 mph   84% 0.00 in WeatherDisplay:10.37 W/m2 SCT
09:45 74.9 °F 69.0 °F 30.08 in East 3.1 mph   82% 0.00 in WeatherDisplay:10.37 W/m2 SCT
09:50 75.3 °F 69.1 °F 30.08 in North 3.1 mph   81% 0.00 in WeatherDisplay:10.37 W/m2 SCT
09:55 75.5 °F 68.5 °F 30.08 in North 3.1 mph   79% 0.00 in WeatherDisplay:10.37 W/m2 SCT
10:00 75.6 °F 67.9 °F 30.08 in North 3.1 mph   77% 0.00 in WeatherDisplay:10.37 W/m2 SCT
10:05 76.1 °F 69.1 °F 30.08 in North 3.1 mph   79% 0.00 in WeatherDisplay:10.37 W/m2 SCT
10:10 76.8 °F 69.8 °F 30.08 in North 3.1 mph   79% 0.00 in WeatherDisplay:10.37 W/m2 SCT
10:15 77.7 °F 70.3 °F 30.08 in North 3.1 mph   78% 0.00 in WeatherDisplay:10.37 W/m2 SCT
10:20 78.6 °F 69.6 °F 30.08 in North 3.1 mph   74% 0.00 in WeatherDisplay:10.37 W/m2 SCT
10:26 79.4 °F 70.4 °F 30.08 in North 3.1 mph   74% 0.00 in WeatherDisplay:10.37 W/m2 SCT
10:31 80.1 °F 70.7 °F 30.08 in North 3.1 mph   73% 0.00 in WeatherDisplay:10.37 W/m2 SCT
10:36 80.7 °F 71.2 °F 30.08 in North 3.1 mph   73% 0.00 in WeatherDisplay:10.37 W/m2 SCT
10:41 80.8 °F 69.2 °F 30.08 in NE 3.1 mph   68% 0.00 in WeatherDisplay:10.37 W/m2 SCT
10:46 81.1 °F 69.5 °F 30.08 in NE 3.1 mph   68% 0.00 in WeatherDisplay:10.37 W/m2 SCT
10:51 81.1 °F 69.1 °F 30.08 in NE 3.1 mph   67% 0.00 in WeatherDisplay:10.37 W/m2 SCT
10:56 80.8 °F 68.8 °F 30.09 in ENE 3.1 mph   67% 0.00 in WeatherDisplay:10.37 W/m2 SCT
11:01 80.6 °F 69.1 °F 30.08 in NW 3.1 mph 3.1 mph 68% 0.00 in WeatherDisplay:10.37 W/m2 SCT
11:06 80.6 °F 69.1 °F 30.08 in NW 3.1 mph   68% 0.00 in WeatherDisplay:10.37 W/m2 SCT
11:11 80.9 °F 69.3 °F 30.09 in NW 3.1 mph   68% 0.00 in WeatherDisplay:10.37 W/m2 SCT
11:16 81.1 °F 68.7 °F 30.09 in NW 3.1 mph   66% 0.00 in WeatherDisplay:10.37 W/m2 SCT
11:21 81.1 °F 69.1 °F 30.09 in NW 3.1 mph   67% 0.00 in WeatherDisplay:10.37 W/m2 SCT
11:26 81.2 °F 67.9 °F 30.09 in NE 3.1 mph 3.1 mph 64% 0.00 in WeatherDisplay:10.37 W/m2 SCT
11:31 81.3 °F 68.4 °F 30.09 in NW 3.1 mph   65% 0.00 in WeatherDisplay:10.37 W/m2 SCT
11:36 81.4 °F 68.9 °F 30.09 in NW 3.1 mph   66% 0.00 in WeatherDisplay:10.37 W/m2 SCT
11:41 81.6 °F 68.7 °F 30.09 in NW 3.1 mph   65% 0.00 in WeatherDisplay:10.37 W/m2 SCT
11:46 81.9 °F 69.4 °F 30.09 in WNW 3.1 mph   66% 0.00 in WeatherDisplay:10.37 W/m2 SCT
11:52 82.0 °F 67.7 °F 30.08 in North 3.1 mph 3.1 mph 62% 0.00 in WeatherDisplay:10.37 W/m2 SCT
11:57 82.1 °F 68.7 °F 30.08 in East 3.1 mph 3.1 mph 64% 0.00 in WeatherDisplay:10.37 W/m2 SCT
12:02 82.0 °F 67.2 °F 30.08 in ENE 3.1 mph 3.1 mph 61% 0.00 in WeatherDisplay:10.37 W/m2 SCT
12:07 81.7 °F 68.3 °F 30.08 in NE 3.1 mph   64% 0.00 in WeatherDisplay:10.37 W/m2 SCT
12:12 82.0 °F 69.5 °F 30.08 in NNE 3.1 mph   66% 0.00 in WeatherDisplay:10.37 W/m2 SCT
12:17 82.5 °F 68.2 °F 30.08 in NNE 3.1 mph   62% 0.00 in WeatherDisplay:10.37 W/m2 SCT
12:22 82.8 °F 69.4 °F 30.08 in NW 3.1 mph   64% 0.00 in WeatherDisplay:10.37 W/m2 SCT
12:27 83.2 °F 69.3 °F 30.08 in WNW 3.1 mph 3.1 mph 63% 0.00 in WeatherDisplay:10.37 W/m2 SCT
12:32 83.4 °F 68.1 °F 30.08 in NNE 3.1 mph   60% 0.00 in WeatherDisplay:10.37 W/m2 SCT
12:37 83.7 °F 67.8 °F 30.08 in NE 3.1 mph   59% 0.00 in WeatherDisplay:10.37 W/m2 SCT
12:42 84.3 °F 68.4 °F 30.07 in NW 3.1 mph   59% 0.00 in WeatherDisplay:10.37 W/m2 SCT
12:47 84.9 °F 68.5 °F 30.07 in NW 3.1 mph   58% 0.00 in WeatherDisplay:10.37 W/m2 SCT
12:52 85.6 °F 67.6 °F 30.07 in NW 3.1 mph   55% 0.00 in WeatherDisplay:10.37 W/m2 SCT
12:57 85.6 °F 66.0 °F 30.07 in NW 3.1 mph   52% 0.00 in WeatherDisplay:10.37 W/m2 SCT
13:02 86.1 °F 68.0 °F 30.07 in North 3.1 mph   55% 0.00 in WeatherDisplay:10.37 W/m2 SCT
13:07 86.3 °F 67.2 °F 30.07 in West 3.5 mph 3.5 mph 53% 0.00 in WeatherDisplay:10.37 W/m2 SCT
13:12 86.9 °F 67.2 °F 30.06 in SSW 3.5 mph   52% 0.00 in WeatherDisplay:10.37 W/m2 SCT
13:18 87.5 °F 68.3 °F 30.06 in WNW 3.5 mph 3.5 mph 53% 0.00 in WeatherDisplay:10.37 W/m2 SCT
13:23 87.9 °F 68.6 °F 30.06 in SE 3.5 mph 3.5 mph 53% 0.00 in WeatherDisplay:10.37 W/m2 SCT
13:28 87.7 °F 66.8 °F 30.06 in ENE 3.5 mph   50% 0.00 in WeatherDisplay:10.37 W/m2 SCT
13:33 87.7 °F 67.3 °F 30.06 in WNW 3.5 mph   51% 0.00 in WeatherDisplay:10.37 W/m2 SCT
13:38 87.1 °F 65.6 °F 30.06 in East 3.5 mph   49% 0.00 in WeatherDisplay:10.37 W/m2 SCT
13:43 87.0 °F 67.2 °F 30.06 in NNW 3.5 mph   52% 0.00 in WeatherDisplay:10.37 W/m2 SCT
13:48 87.1 °F 66.2 °F 30.06 in WNW 3.5 mph   50% 0.00 in WeatherDisplay:10.37 W/m2 SCT
13:53 86.9 °F 67.2 °F 30.06 in WNW 3.5 mph   52% 0.00 in WeatherDisplay:10.37 W/m2 SCT
13:58 86.7 °F 65.3 °F 30.06 in WNW 3.5 mph   49% 0.00 in WeatherDisplay:10.37 W/m2 SCT
14:03 86.7 °F 67.0 °F 30.06 in West 3.5 mph 3.5 mph 52% 0.00 in WeatherDisplay:10.37 W/m2 SCT
14:08 87.0 °F 66.7 °F 30.05 in West 3.5 mph   51% 0.00 in WeatherDisplay:10.37 W/m2 SCT
14:13 86.9 °F 66.6 °F 30.05 in NNE 3.5 mph   51% 0.00 in WeatherDisplay:10.37 W/m2 BKN
14:18 86.7 °F 65.3 °F 30.05 in ENE 3.5 mph   49% 0.00 in WeatherDisplay:10.37 W/m2 BKN
14:23 87.0 °F 66.7 °F 30.05 in SE 3.5 mph 3.5 mph 51% 0.00 in WeatherDisplay:10.37 W/m2 BKN
14:28 87.1 °F 65.6 °F 30.05 in ESE 3.5 mph   49% 0.00 in WeatherDisplay:10.37 W/m2 BKN
14:33 86.6 °F 65.7 °F 30.05 in East 3.5 mph 3.5 mph 50% 0.00 in WeatherDisplay:10.37 W/m2 BKN
14:38 86.5 °F 65.1 °F 30.05 in NNW 3.5 mph 3.5 mph 49% 0.00 in WeatherDisplay:10.37 W/m2 BKN
14:43 86.7 °F 67.0 °F 30.05 in WSW 3.5 mph   52% 0.00 in WeatherDisplay:10.37 W/m2 BKN
14:48 86.8 °F 66.5 °F 30.05 in West 3.5 mph   51% 0.00 in WeatherDisplay:10.37 W/m2 BKN
14:53 86.1 °F 66.4 °F 30.05 in East 3.5 mph   52% 0.00 in WeatherDisplay:10.37 W/m2 BKN
14:58 84.9 °F 66.4 °F 30.05 in East 3.5 mph   54% 0.00 in WeatherDisplay:10.37 W/m2 BKN
15:03 84.3 °F 66.9 °F 30.05 in East 3.5 mph   56% 0.00 in WeatherDisplay:10.37 W/m2 BKN
15:08 84.4 °F 63.2 °F 30.04 in ENE 3.5 mph 3.5 mph 49% 0.00 in WeatherDisplay:10.37 W/m2 BKN
15:13 84.6 °F 62.7 °F 30.04 in SSE 3.5 mph   48% 0.00 in WeatherDisplay:10.37 W/m2 BKN
15:18 84.9 °F 64.8 °F 30.04 in SSE 3.5 mph   51% 0.00 in WeatherDisplay:10.37 W/m2 BKN
15:23 85.1 °F 66.0 °F 30.04 in SSE 3.5 mph   53% 0.00 in WeatherDisplay:10.37 W/m2 BKN
15:28 85.1 °F 66.6 °F 30.04 in SSE 3.5 mph   54% 0.00 in WeatherDisplay:10.37 W/m2 BKN
15:33 84.7 °F 66.7 °F 30.04 in WNW 3.5 mph   55% 0.00 in WeatherDisplay:10.37 W/m2 BKN
15:38 84.5 °F 67.6 °F 30.04 in WNW 3.5 mph   57% 0.00 in WeatherDisplay:10.37 W/m2 BKN
15:43 84.3 °F 66.9 °F 30.04 in WNW 3.5 mph   56% 0.00 in WeatherDisplay:10.37 W/m2 BKN
15:48 84.6 °F 67.2 °F 30.04 in SSW 3.5 mph 3.5 mph 56% 0.00 in WeatherDisplay:10.37 W/m2 BKN
15:54 84.9 °F 67.5 °F 30.04 in SE 3.5 mph 3.5 mph 56% 0.00 in WeatherDisplay:10.37 W/m2 BKN
15:59 85.1 °F 67.1 °F 30.04 in North 3.5 mph   55% 0.00 in WeatherDisplay:10.37 W/m2 BKN
16:04 85.2 °F 67.2 °F 30.04 in WNW 3.5 mph   55% 0.00 in WeatherDisplay:10.37 W/m2 BKN
16:09 85.4 °F 66.9 °F 30.03 in SSW 3.5 mph 3.5 mph 54% 0.00 in WeatherDisplay:10.37 W/m2 BKN
16:14 85.5 °F 66.4 °F 30.03 in SW 3.5 mph   53% 0.00 in WeatherDisplay:10.37 W/m2 BKN
16:19 85.7 °F 67.7 °F 30.03 in NNE 3.5 mph   55% 0.00 in WeatherDisplay:10.37 W/m2 BKN
16:24 85.6 °F 67.6 °F 30.03 in SSW 3.5 mph 3.5 mph 55% 0.00 in WeatherDisplay:10.37 W/m2 BKN
16:29 85.4 °F 68.4 °F 30.03 in ENE 3.5 mph 3.5 mph 57% 0.00 in WeatherDisplay:10.37 W/m2 BKN
16:34 85.5 °F 69.0 °F 30.03 in West 3.5 mph 3.5 mph 58% 0.00 in WeatherDisplay:10.37 W/m2 BKN
16:39 85.5 °F 68.0 °F 30.03 in WSW 3.5 mph   56% 0.00 in WeatherDisplay:10.37 W/m2 BKN
16:44 85.5 °F 69.0 °F 30.02 in West 3.5 mph 3.5 mph 58% 0.00 in WeatherDisplay:10.37 W/m2 BKN
16:49 85.6 °F 69.1 °F 30.02 in SSW 3.5 mph   58% 0.00 in WeatherDisplay:10.37 W/m2 BKN
16:54 86.1 °F 69.1 °F 30.02 in SSW 3.5 mph   57% 0.00 in WeatherDisplay:10.37 W/m2 BKN
16:59 86.4 °F 68.3 °F 30.02 in SSW 3.5 mph 3.5 mph 55% 0.00 in WeatherDisplay:10.37 W/m2 BKN
17:04 85.7 °F 68.2 °F 30.02 in SSW 3.5 mph   56% 0.00 in WeatherDisplay:10.37 W/m2 BKN
17:09 85.1 °F 68.2 °F 30.02 in SSW 3.5 mph   57% 0.00 in WeatherDisplay:10.37 W/m2 BKN
17:15 85.2 °F 68.8 °F 30.02 in SSW 3.5 mph   58% 0.00 in WeatherDisplay:10.37 W/m2 BKN
17:20 84.9 °F 68.5 °F 30.02 in SSW 3.5 mph   58% 0.00 in WeatherDisplay:10.37 W/m2 BKN
17:25 84.4 °F 68.0 °F 30.02 in SSW 3.5 mph   58% 0.00 in WeatherDisplay:10.37 W/m2 BKN
17:30 83.9 °F 68.5 °F 30.02 in SSW 3.5 mph   60% 0.00 in WeatherDisplay:10.37 W/m2 BKN
17:35 83.7 °F 69.3 °F 30.01 in SSW 3.5 mph   62% 0.00 in WeatherDisplay:10.37 W/m2 BKN
17:40 83.5 °F 67.7 °F 30.01 in East 3.5 mph   59% 0.00 in WeatherDisplay:10.37 W/m2 BKN
17:45 83.6 °F 68.2 °F 30.01 in East 3.5 mph   60% 0.00 in WeatherDisplay:10.37 W/m2 BKN
17:50 83.7 °F 68.3 °F 30.01 in East 3.5 mph   60% 0.00 in WeatherDisplay:10.37 W/m2 BKN
17:55 83.7 °F 67.4 °F 30.01 in East 3.5 mph   58% 0.00 in WeatherDisplay:10.37 W/m2 BKN
18:00 83.6 °F 66.8 °F 30.01 in WNW 3.5 mph 3.5 mph 57% 0.00 in WeatherDisplay:10.37 W/m2 BKN
18:05 83.6 °F 67.3 °F 30.01 in West 3.5 mph   58% 0.00 in WeatherDisplay:10.37 W/m2 BKN
18:10 83.6 °F 68.2 °F 30.01 in West 3.5 mph   60% 0.00 in WeatherDisplay:10.37 W/m2 BKN
18:16 83.6 °F 67.3 °F 30.01 in SW 3.5 mph 3.5 mph 58% 0.00 in WeatherDisplay:10.37 W/m2 BKN
18:21 83.5 °F 67.2 °F 30.01 in SW 3.5 mph   58% 0.00 in WeatherDisplay:10.37 W/m2 SCT
18:26 83.5 °F 67.2 °F 30.01 in SW 3.5 mph   58% 0.00 in WeatherDisplay:10.37 W/m2 SCT
18:31 83.5 °F 68.2 °F 30.01 in WSW 3.5 mph   60% 0.00 in WeatherDisplay:10.37 W/m2 SCT
18:36 83.2 °F 66.9 °F 30.01 in WSW 3.5 mph   58% 0.00 in WeatherDisplay:10.37 W/m2 SCT
18:41 83.0 °F 66.7 °F 30.01 in NE 3.5 mph 3.5 mph 58% 0.00 in WeatherDisplay:10.37 W/m2 SCT
18:46 82.8 °F 66.0 °F 30.01 in NE 3.5 mph   57% 0.00 in WeatherDisplay:10.37 W/m2 SCT
18:51 82.7 °F 66.4 °F 30.01 in NE 3.5 mph   58% 0.00 in WeatherDisplay:10.37 W/m2 SCT
18:56 82.5 °F 67.7 °F 30.01 in NE 3.5 mph   61% 0.00 in WeatherDisplay:10.37 W/m2 SCT
19:01 82.2 °F 66.9 °F 30.01 in NE 3.5 mph   60% 0.00 in WeatherDisplay:10.37 W/m2 SCT
19:06 82.0 °F 67.2 °F 30.01 in NE 3.5 mph   61% 0.00 in WeatherDisplay:10.37 W/m2 SCT
19:11 81.9 °F 67.1 °F 30.01 in NE 3.5 mph   61% 0.00 in WeatherDisplay:10.37 W/m2 SCT
19:16 81.7 °F 67.4 °F 30.01 in NE 3.5 mph   62% 0.00 in WeatherDisplay:10.37 W/m2 SCT
19:17 81.6 °F 67.3 °F 30.01 in NE 3.5 mph   62% 0.00 in WeatherDisplay:10.37 W/m2 SCT
19:22 81.4 °F 66.7 °F 30.01 in NE 3.5 mph   61% 0.00 in WeatherDisplay:10.37 W/m2 SCT
19:27 81.2 °F 66.5 °F 30.01 in NE 3.5 mph   61% 0.00 in WeatherDisplay:10.37 W/m2 SCT
19:32 81.1 °F 67.3 °F 30.01 in NE 3.5 mph   63% 0.00 in WeatherDisplay:10.37 W/m2 SCT
19:37 81.0 °F 67.2 °F 30.01 in NE 3.5 mph   63% 0.00 in WeatherDisplay:10.37 W/m2 SCT
19:42 80.8 °F 67.0 °F 30.01 in NE 3.5 mph   63% 0.00 in WeatherDisplay:10.37 W/m2 SCT
19:47 80.6 °F 67.3 °F 30.02 in NE 3.5 mph   64% 0.00 in WeatherDisplay:10.37 W/m2 SCT
19:52 80.3 °F 67.0 °F 30.01 in NE 3.5 mph   64% 0.00 in WeatherDisplay:10.37 W/m2 SCT
19:57 80.1 °F 66.4 °F 30.02 in NE 3.5 mph   63% 0.00 in WeatherDisplay:10.37 W/m2 SCT
20:02 79.9 °F 66.6 °F 30.02 in NE 3.5 mph   64% 0.00 in WeatherDisplay:10.37 W/m2 SCT
20:07 79.8 °F 67.0 °F 30.02 in NE 3.5 mph   65% 0.00 in WeatherDisplay:10.37 W/m2 SCT
20:12 79.5 °F 66.7 °F 30.02 in NE 3.5 mph   65% 0.00 in WeatherDisplay:10.37 W/m2 SCT
20:17 79.3 °F 67.0 °F 30.02 in NE 3.5 mph   66% 0.00 in WeatherDisplay:10.37 W/m2 SCT
20:22 79.1 °F 66.8 °F 30.02 in NE 3.5 mph   66% 0.00 in WeatherDisplay:10.37 W/m2 BKN
20:27 78.9 °F 67.0 °F 30.02 in NE 3.5 mph   67% 0.00 in WeatherDisplay:10.37 W/m2 BKN
20:32 78.7 °F 66.8 °F 30.02 in NE 3.5 mph   67% 0.00 in WeatherDisplay:10.37 W/m2 BKN
20:38 78.4 °F 66.5 °F 30.02 in NE 3.5 mph   67% 0.00 in WeatherDisplay:10.37 W/m2 BKN
20:43 78.2 °F 66.8 °F 30.02 in NE 3.5 mph   68% 0.00 in WeatherDisplay:10.37 W/m2 BKN
20:48 77.8 °F 66.8 °F 30.02 in NE 3.5 mph   69% 0.00 in WeatherDisplay:10.37 W/m2 BKN
20:53 77.5 °F 66.1 °F 30.02 in NE 3.5 mph   68% 0.00 in WeatherDisplay:10.37 W/m2 BKN
20:58 77.4 °F 66.4 °F 30.02 in NE 3.5 mph   69% 0.00 in WeatherDisplay:10.37 W/m2 BKN
21:03 77.2 °F 66.2 °F 30.02 in NE 3.5 mph   69% 0.00 in WeatherDisplay:10.37 W/m2 BKN
21:08 76.9 °F 66.4 °F 30.02 in NE 3.5 mph   70% 0.00 in WeatherDisplay:10.37 W/m2 BKN
21:13 76.6 °F 66.1 °F 30.02 in NE 3.5 mph   70% 0.00 in WeatherDisplay:10.37 W/m2 BKN
21:18 76.5 °F 66.0 °F 30.02 in NE 3.5 mph   70% 0.00 in WeatherDisplay:10.37 W/m2 BKN
21:23 76.4 °F 66.3 °F 30.03 in NE 3.5 mph   71% 0.00 in WeatherDisplay:10.37 W/m2 SCT
21:28 76.3 °F 66.2 °F 30.03 in NE 3.5 mph   71% 0.00 in WeatherDisplay:10.37 W/m2 SCT
21:33 76.1 °F 66.0 °F 30.03 in NE 3.5 mph   71% 0.00 in WeatherDisplay:10.37 W/m2 SCT
21:38 75.9 °F 66.6 °F 30.03 in NE 3.5 mph   73% 0.00 in WeatherDisplay:10.37 W/m2 SCT
21:43 75.8 °F 66.9 °F 30.03 in NE 3.5 mph   74% 0.00 in WeatherDisplay:10.37 W/m2 SCT
21:48 75.7 °F 66.4 °F 30.04 in NE 3.5 mph   73% 0.00 in WeatherDisplay:10.37 W/m2 SCT
21:54 75.5 °F 66.2 °F 30.04 in NE 3.5 mph   73% 0.00 in WeatherDisplay:10.37 W/m2 SCT
21:59 75.2 °F 65.9 °F 30.05 in NE 3.5 mph   73% 0.00 in WeatherDisplay:10.37 W/m2 SCT
22:04 75.0 °F 66.1 °F 30.05 in NE 3.5 mph   74% 0.00 in WeatherDisplay:10.37 W/m2 SCT
22:09 74.8 °F 66.0 °F 30.05 in NE 3.5 mph   74% 0.00 in WeatherDisplay:10.37 W/m2 SCT
22:14 74.6 °F 65.8 °F 30.06 in NE 3.5 mph   74% 0.00 in WeatherDisplay:10.37 W/m2 SCT
22:19 74.4 °F 66.0 °F 30.06 in NE 3.5 mph   75% 0.00 in WeatherDisplay:10.37 W/m2 SCT
22:24 74.2 °F 66.1 °F 30.06 in NE 3.5 mph   76% 0.00 in WeatherDisplay:10.37 W/m2 SCT
22:29 74.1 °F 66.4 °F 30.06 in NE 3.5 mph   77% 0.00 in WeatherDisplay:10.37 W/m2 SCT
22:34 73.8 °F 66.1 °F 30.06 in NE 3.5 mph   77% 0.00 in WeatherDisplay:10.37 W/m2 SCT
22:39 73.6 °F 66.3 °F 30.06 in NE 3.5 mph   78% 0.00 in WeatherDisplay:10.37 W/m2 SCT
22:44 73.4 °F 66.1 °F 30.06 in NE 3.5 mph   78% 0.00 in WeatherDisplay:10.37 W/m2 SCT
22:49 73.5 °F 66.6 °F 30.06 in NE 3.5 mph   79% 0.00 in WeatherDisplay:10.37 W/m2 SCT
22:54 73.4 °F 66.5 °F 30.07 in NE 3.5 mph   79% 0.00 in WeatherDisplay:10.37 W/m2 SCT
22:59 73.4 °F 66.5 °F 30.06 in NE 3.5 mph   79% 0.00 in WeatherDisplay:10.37 W/m2 SCT
23:04 73.5 °F 66.6 °F 30.06 in NE 3.5 mph   79% 0.00 in WeatherDisplay:10.37 W/m2 SCT
23:09 73.5 °F 66.6 °F 30.06 in NE 3.5 mph   79% 0.00 in WeatherDisplay:10.37 W/m2 SCT
23:14 73.3 °F 66.4 °F 30.07 in NE 3.5 mph   79% 0.00 in WeatherDisplay:10.37 W/m2 SCT
23:19 73.1 °F 66.6 °F 30.07 in NE 3.5 mph   80% 0.00 in WeatherDisplay:10.37 W/m2 SCT
23:24 72.9 °F 66.4 °F 30.06 in NE 3.5 mph   80% 0.00 in WeatherDisplay:10.37 W/m2 SCT
23:30 72.8 °F 66.3 °F 30.07 in NE 3.5 mph   80% 0.00 in WeatherDisplay:10.37 W/m2 SCT
23:35 72.5 °F 66.3 °F 30.06 in Calm     81% 0.00 in WeatherDisplay:10.37 W/m2 SCT
23:40 72.3 °F 66.1 °F 30.06 in Calm     81% 0.00 in WeatherDisplay:10.37 W/m2 SCT
23:45 72.2 °F 66.4 °F 30.06 in Calm     82% 0.00 in WeatherDisplay:10.37 W/m2 SCT
23:50 72.0 °F 66.2 °F 30.06 in Calm     82% 0.00 in WeatherDisplay:10.37 W/m2 SCT
23:55 72.0 °F 66.2 °F 30.07 in Calm     82% 0.00 in WeatherDisplay:10.37 W/m2 SCT
Piedmont Bend
Compliments of Weather Underground - 4 mb